Alys Beach, FL

4:16 AM CDT on August 04, 2015 (GMT -0500)
Nelda Sansouci | | Change Station
CLOSE
Current Station
Personal Weather Station
Location: Panama City Beach, FL
Elevation: 39 ft
Nearby Weather Stations

Elev 39 ft 30.24 °N, 85.91 °W | Updated 31 seconds ago

Partly Cloudy
Partly Cloudy
83.7 °F
Feels Like 97 °F
N
4.7
Wind Variable Wind from West
Gusts 7.3 mph

Today
High -- | Low -- °F
--% Chance of Precip.
Yesterday
High -- | Low -- °F
Precip. -- in
6:04 AM 7:35 PM
Waning Gibbous, 79% visible
Pressure 29.96 in
Visibility 10.0 miles
Clouds Clear
Heat Index 97 °F
Dew Point 80 °F
Humidity 90%
Rainfall 0.00 in
Snow Depth Not available.
UV 0 out of 12
Pollen 3.70 out of 12
Air Quality Not available.
Flu Activity Not available.
METAR KECP 040853Z AUTO 21003KT 10SM CLR 27/26 A2993 RMK AO2 SLP145 T02670256 53002

More Conditions Fewer Conditions

Pressure 29.96 in
Visibility 10.0 miles
Clouds Clear
Heat Index 97 °F
Dew Point 80 °F
Humidity 90%
Rainfall 0.00 in
Snow Depth Not available.
UV 0 out of 12
Pollen 3.70 out of 12
Air Quality Not available.
Flu Activity Not available.
METAR KECP 040853Z AUTO 21003KT 10SM CLR 27/26 A2993 RMK AO2 SLP145 T02670256 53002

More Conditions Fewer Conditions

10-Day Weather Forecast

×

Almanac

Astronomy

Aug. 04, 2015 Rise Set
Actual Time
Civil Twilight
Nautical Twilight
Astronomical Twilight
Moon
Length of Visible Light
Length of Day
Tomorrow will be .
, % of the Moon is Illuminated

Today's Extremes

State Highs State Lows

Community

WunderPhotos

Upload Photos

1,843,877 photos uploaded!

WunderBlogs® & News

Nearby

Air Quality

  Air Quality AQ Index Pollutant
Not available.

Snow Depth

Station Depth Elevation

Earthquake Activity

City Distance Mag. Time & Date
Minimum magnitude displayed is 2.5.

Coastal Water Temperatures

Place Temperature

Stations

Nearby Weather Stations

Station Location Temp. Windchill Dew Point Humidity Wind Precip. Elev Updated Type